createdAt,value
2022-12-12T00:00:09.427Z,19.13
2022-12-12T00:02:20.857Z,19.75
2022-12-12T00:04:25.802Z,21.48
2022-12-12T00:06:31.518Z,20.30
2022-12-12T00:08:37.915Z,21.90
2022-12-12T00:10:42.803Z,20.00
2022-12-12T00:12:47.573Z,20.17
2022-12-12T00:14:52.362Z,19.75
2022-12-12T00:16:57.199Z,19.83
2022-12-12T00:19:04.653Z,23.25
2022-12-12T00:21:14.885Z,22.73
2022-12-12T00:23:19.904Z,22.30
2022-12-12T00:25:24.677Z,24.05
2022-12-12T00:27:29.489Z,22.17
2022-12-12T00:29:34.282Z,22.23
2022-12-12T00:31:39.108Z,22.02
2022-12-12T00:33:44.910Z,22.63
2022-12-12T00:35:56.417Z,20.95
2022-12-12T00:38:01.194Z,22.83
2022-12-12T00:40:07.792Z,22.58
2022-12-12T00:42:12.630Z,21.80
2022-12-12T00:44:17.613Z,22.38
2022-12-12T00:46:24.620Z,21.92
2022-12-12T00:48:29.896Z,21.65
2022-12-12T00:52:42.052Z,21.00
2022-12-12T00:54:46.843Z,23.27
2022-12-12T00:56:51.603Z,22.63
2022-12-12T00:58:56.738Z,22.33
2022-12-12T01:01:06.588Z,23.00
2022-12-12T01:03:11.506Z,22.45
2022-12-12T01:05:17.540Z,23.38
2022-12-12T01:07:22.327Z,20.48
2022-12-12T01:09:29.795Z,22.05
2022-12-12T01:11:34.638Z,19.40
2022-12-12T01:13:40.064Z,20.13
2022-12-12T01:15:44.886Z,20.55
2022-12-12T01:17:49.865Z,21.58
2022-12-12T01:19:54.677Z,22.50
2022-12-12T01:21:59.450Z,21.50
2022-12-12T01:24:04.571Z,20.52
2022-12-12T01:28:17.748Z,19.38
2022-12-12T01:30:24.808Z,22.67
2022-12-12T01:32:29.599Z,21.25
2022-12-12T01:34:34.397Z,21.23
2022-12-12T01:36:39.188Z,21.75
2022-12-12T01:38:45.544Z,24.20
2022-12-12T01:40:50.341Z,24.35
2022-12-12T01:42:57.897Z,23.88
2022-12-12T01:45:03.150Z,23.92
2022-12-12T01:47:08.168Z,24.02
2022-12-12T01:49:20.086Z,24.63
2022-12-12T01:51:28.019Z,22.40
2022-12-12T01:53:34.571Z,21.88
2022-12-12T01:55:39.506Z,23.67
2022-12-12T01:57:48.885Z,21.70
2022-12-12T01:59:56.472Z,23.17
2022-12-12T02:02:01.266Z,22.27
2022-12-12T02:04:06.580Z,21.95
2022-12-12T02:06:15.613Z,21.92
2022-12-12T02:08:22.375Z,22.48
2022-12-12T02:10:27.223Z,21.75
2022-12-12T02:12:34.490Z,22.67
2022-12-12T02:14:42.925Z,22.30
2022-12-12T02:17:12.812Z,21.50
2022-12-12T02:19:42.028Z,23.17
2022-12-12T02:21:52.445Z,21.38
2022-12-12T02:24:31.313Z,20.88
2022-12-12T02:27:11.803Z,21.73
2022-12-12T02:29:52.493Z,22.65
2022-12-12T02:32:07.871Z,20.73
2022-12-12T02:34:22.151Z,21.48
2022-12-12T02:36:36.141Z,22.13
2022-12-12T02:38:50.094Z,19.25
2022-12-12T02:41:04.274Z,20.65
2022-12-12T02:43:15.867Z,21.85
2022-12-12T02:45:28.324Z,19.92
2022-12-12T02:47:38.666Z,20.17
2022-12-12T02:49:46.985Z,20.13
2022-12-12T02:51:53.978Z,20.10
2022-12-12T02:54:01.047Z,21.58
2022-12-12T02:56:07.594Z,20.60
2022-12-12T02:58:12.472Z,20.35
2022-12-12T03:00:19.515Z,19.67
2022-12-12T03:03:15.706Z,19.67
2022-12-12T03:05:49.811Z,19.70
2022-12-12T03:08:07.426Z,18.70
2022-12-12T03:10:19.510Z,17.05
2022-12-12T03:12:34.459Z,18.27
2022-12-12T03:14:51.142Z,19.45
2022-12-12T03:17:06.268Z,20.52
2022-12-12T03:19:19.399Z,19.52
2022-12-12T03:21:27.543Z,19.88
2022-12-12T03:23:37.432Z,20.65
2022-12-12T03:25:50.506Z,20.00
2022-12-12T03:28:01.686Z,20.02
2022-12-12T03:30:10.194Z,19.63
2022-12-12T03:32:21.373Z,20.05
2022-12-12T03:34:32.415Z,19.13
2022-12-12T03:36:42.445Z,19.63
2022-12-12T03:38:57.173Z,18.90
2022-12-12T03:41:04.679Z,17.45
2022-12-12T03:43:14.009Z,17.65
2022-12-12T03:45:26.312Z,20.63
2022-12-12T03:47:36.282Z,19.80
2022-12-12T03:49:47.146Z,18.13
2022-12-12T03:51:58.339Z,17.38
2022-12-12T03:54:12.531Z,19.58
2022-12-12T03:56:25.392Z,17.13
2022-12-12T03:58:33.468Z,16.33
2022-12-12T04:00:42.363Z,20.17
2022-12-12T04:02:54.299Z,20.40
2022-12-12T04:05:11.368Z,19.98
2022-12-12T04:07:20.285Z,19.73
2022-12-12T04:09:39.062Z,20.15
2022-12-12T04:11:59.401Z,21.25
2022-12-12T04:14:12.898Z,22.67
2022-12-12T04:16:23.005Z,20.90
2022-12-12T04:18:39.743Z,21.13
2022-12-12T04:21:11.481Z,21.42
2022-12-12T04:23:22.705Z,22.02
2022-12-12T04:25:35.506Z,21.48
2022-12-12T04:27:45.903Z,23.27
2022-12-12T04:29:56.749Z,21.63
2022-12-12T04:32:07.378Z,21.13
2022-12-12T04:34:18.124Z,22.50
2022-12-12T04:36:27.317Z,21.00
2022-12-12T04:38:33.196Z,22.77
2022-12-12T04:40:42.786Z,22.35
2022-12-12T04:42:54.275Z,22.52
2022-12-12T04:45:04.567Z,22.25
2022-12-12T04:47:11.485Z,22.67
2022-12-12T04:49:20.931Z,24.55
2022-12-12T04:51:32.962Z,23.05
2022-12-12T04:53:42.258Z,23.65
2022-12-12T04:55:51.252Z,24.58
2022-12-12T04:57:57.877Z,22.48
2022-12-12T05:00:03.025Z,23.70
2022-12-12T05:04:22.541Z,24.15
2022-12-12T05:06:34.796Z,24.20
2022-12-12T05:08:43.611Z,22.15
2022-12-12T05:10:53.493Z,22.30
2022-12-12T05:13:01.898Z,25.83
2022-12-12T05:15:11.981Z,23.63
2022-12-12T05:17:21.511Z,25.38
2022-12-12T05:19:26.344Z,24.55
2022-12-12T05:21:33.922Z,25.17
2022-12-12T05:23:38.754Z,24.42
2022-12-12T05:25:43.539Z,23.10
2022-12-12T05:27:48.344Z,24.73
2022-12-12T05:29:53.098Z,25.42
2022-12-12T05:31:58.012Z,25.83
2022-12-12T05:34:03.425Z,25.88
2022-12-12T05:36:09.451Z,25.85
2022-12-12T05:38:17.251Z,34.67
2022-12-12T05:40:24.109Z,29.85
2022-12-12T05:42:30.591Z,32.80
2022-12-12T05:44:36.095Z,36.25
2022-12-12T05:46:41.795Z,27.08
2022-12-12T05:48:50.806Z,24.92
2022-12-12T05:50:56.929Z,24.88
2022-12-12T05:53:02.762Z,24.45
2022-12-12T05:55:12.134Z,25.45
2022-12-12T05:57:19.178Z,24.08
2022-12-12T05:59:24.082Z,24.48
2022-12-12T06:01:28.999Z,23.55
2022-12-12T06:03:34.192Z,24.02
2022-12-12T06:05:39.138Z,22.05
2022-12-12T06:07:43.921Z,23.55
2022-12-12T06:09:48.812Z,21.95
2022-12-12T06:11:56.194Z,20.40
2022-12-12T06:14:01.364Z,22.63
2022-12-12T06:18:13.351Z,23.30
2022-12-12T06:20:18.183Z,23.55
2022-12-12T06:22:22.935Z,22.15
2022-12-12T06:24:27.800Z,23.65
2022-12-12T06:26:32.664Z,21.02
2022-12-12T06:28:40.525Z,24.27
2022-12-12T06:30:45.334Z,18.25
2022-12-12T06:32:50.179Z,17.42
2022-12-12T06:34:55.133Z,19.77
2022-12-12T06:36:59.948Z,19.98
2022-12-12T06:39:04.865Z,22.30
2022-12-12T06:41:10.796Z,19.35
2022-12-12T06:43:15.558Z,20.10
2022-12-12T06:45:22.989Z,19.35
2022-12-12T06:47:27.872Z,22.15
2022-12-12T06:49:32.685Z,22.83
2022-12-12T06:51:38.863Z,21.75
2022-12-12T06:53:44.101Z,21.75
2022-12-12T06:55:48.915Z,22.65
2022-12-12T06:57:53.766Z,22.65
2022-12-12T06:59:58.577Z,24.48
2022-12-12T07:02:06.364Z,23.13
2022-12-12T07:04:11.474Z,26.77
2022-12-12T07:06:17.132Z,26.08
2022-12-12T07:08:22.010Z,25.92
2022-12-12T07:10:26.912Z,25.63
2022-12-12T07:12:31.702Z,28.80
2022-12-12T07:14:36.462Z,26.92
2022-12-12T07:16:41.486Z,25.52
2022-12-12T07:18:49.492Z,24.98
2022-12-12T07:20:54.296Z,27.42
2022-12-12T07:22:59.071Z,28.00
2022-12-12T07:25:03.848Z,29.90
2022-12-12T07:27:09.271Z,24.40
2022-12-12T07:29:15.301Z,26.65
2022-12-12T07:31:21.962Z,26.58
2022-12-12T07:33:34.280Z,26.30
2022-12-12T07:35:48.633Z,28.08
2022-12-12T07:37:53.555Z,24.85
2022-12-12T07:39:58.337Z,23.83
2022-12-12T07:42:03.312Z,26.75
2022-12-12T07:44:08.214Z,24.85
2022-12-12T07:46:16.227Z,26.15
2022-12-12T07:48:21.184Z,25.73
2022-12-12T07:50:25.998Z,26.48
2022-12-12T07:52:33.413Z,26.10
2022-12-12T07:54:38.381Z,28.20
2022-12-12T07:56:43.180Z,26.80
2022-12-12T07:58:48.468Z,24.25
2022-12-12T08:00:53.637Z,27.38
2022-12-12T08:05:03.034Z,25.48
2022-12-12T08:07:08.721Z,27.00
2022-12-12T08:09:16.789Z,28.77
2022-12-12T08:11:23.276Z,26.60
2022-12-12T08:13:28.177Z,24.30
2022-12-12T08:15:33.150Z,26.15
2022-12-12T08:17:37.937Z,25.35
2022-12-12T08:19:43.035Z,25.58
2022-12-12T08:21:48.672Z,24.73
2022-12-12T08:23:53.486Z,23.27
2022-12-12T08:26:05.343Z,22.27
2022-12-12T08:28:10.217Z,22.77
2022-12-12T08:30:16.441Z,23.58
2022-12-12T08:32:21.355Z,22.90
2022-12-12T08:34:26.381Z,25.65
2022-12-12T08:38:37.649Z,22.02
2022-12-12T08:40:43.036Z,21.58
2022-12-12T08:42:50.478Z,21.67
2022-12-12T08:44:55.579Z,22.38
2022-12-12T08:47:00.400Z,20.88
2022-12-12T08:49:05.238Z,22.83
2022-12-12T08:51:10.342Z,26.15
2022-12-12T08:55:20.276Z,23.27
2022-12-12T08:57:26.174Z,23.27
2022-12-12T08:59:36.048Z,23.40
2022-12-12T09:01:41.069Z,22.70
2022-12-12T09:05:50.637Z,22.80
2022-12-12T09:07:55.444Z,22.15
2022-12-12T09:10:00.381Z,24.13
2022-12-12T09:12:05.400Z,23.95
2022-12-12T09:16:17.376Z,24.15
2022-12-12T09:18:22.969Z,24.38
2022-12-12T09:20:27.704Z,25.70
2022-12-12T09:22:32.655Z,24.23
2022-12-12T09:24:37.458Z,24.85
2022-12-12T09:26:42.364Z,21.67
2022-12-12T09:28:47.222Z,21.58
2022-12-12T09:30:52.705Z,20.50
2022-12-12T09:33:00.059Z,22.23
2022-12-12T09:35:04.984Z,22.70
2022-12-12T09:37:09.769Z,21.63
2022-12-12T09:39:14.666Z,19.48
2022-12-12T09:41:22.270Z,20.70
2022-12-12T09:43:30.552Z,20.38
2022-12-12T09:45:39.183Z,21.38
2022-12-12T09:47:47.330Z,19.58
2022-12-12T09:49:57.168Z,21.77
2022-12-12T09:52:02.900Z,23.05
2022-12-12T09:54:08.680Z,21.60
2022-12-12T09:56:19.312Z,20.55
2022-12-12T09:58:29.838Z,20.58
2022-12-12T10:00:39.371Z,21.10
2022-12-12T10:03:01.365Z,19.15
2022-12-12T10:05:18.449Z,18.27
2022-12-12T10:07:28.309Z,19.00
2022-12-12T10:09:45.394Z,21.15
2022-12-12T10:11:54.673Z,18.38
2022-12-12T10:14:03.782Z,19.90
2022-12-12T10:16:16.979Z,19.05
2022-12-12T10:18:43.969Z,17.45
2022-12-12T10:23:28.550Z,18.80
2022-12-12T10:25:44.398Z,17.67
2022-12-12T10:27:52.828Z,15.55
2022-12-12T10:29:58.625Z,16.50
2022-12-12T10:32:14.128Z,19.33
2022-12-12T10:34:31.559Z,16.60
2022-12-12T10:36:57.182Z,16.80
2022-12-12T10:39:11.799Z,15.88
2022-12-12T10:41:23.533Z,15.60
2022-12-12T10:43:35.650Z,13.27
2022-12-12T10:45:54.598Z,14.55
2022-12-12T10:47:59.527Z,12.07
2022-12-12T10:50:19.167Z,14.38
2022-12-12T10:52:26.731Z,14.30
2022-12-12T10:54:35.331Z,14.52
2022-12-12T10:56:40.109Z,12.10
2022-12-12T10:58:46.578Z,14.32
2022-12-12T11:00:52.482Z,12.75
2022-12-12T11:03:00.536Z,12.93
2022-12-12T11:05:13.660Z,12.88
2022-12-12T11:07:23.638Z,15.18
2022-12-12T11:09:33.295Z,14.50
2022-12-12T11:11:38.367Z,15.32
2022-12-12T11:13:48.380Z,15.38
2022-12-12T11:15:55.024Z,14.85
2022-12-12T11:18:05.943Z,13.60
2022-12-12T11:20:20.374Z,14.15
2022-12-12T11:22:25.580Z,15.38
2022-12-12T11:26:46.318Z,12.10
2022-12-12T11:28:57.196Z,12.88
2022-12-12T11:31:06.911Z,14.23
2022-12-12T11:33:19.227Z,12.80
2022-12-12T11:35:30.523Z,12.40
2022-12-12T11:37:41.245Z,12.68
2022-12-12T11:39:52.500Z,12.68
2022-12-12T11:42:02.179Z,13.18
2022-12-12T11:44:06.989Z,14.32
2022-12-12T11:46:23.235Z,14.73
2022-12-12T11:48:41.136Z,13.82
2022-12-12T11:50:48.683Z,15.18
2022-12-12T11:52:56.028Z,14.23
2022-12-12T11:55:04.247Z,16.13
2022-12-12T11:57:15.130Z,15.98
2022-12-12T11:59:56.745Z,15.55
2022-12-12T12:02:18.352Z,16.50
2022-12-12T12:04:41.649Z,15.60
2022-12-12T12:07:04.534Z,16.63
2022-12-12T12:09:25.857Z,15.68
2022-12-12T12:11:45.073Z,16.90
2022-12-12T12:14:05.035Z,15.52
2022-12-12T12:16:21.160Z,16.42
2022-12-12T12:18:41.399Z,13.88
2022-12-12T12:21:06.258Z,14.05
2022-12-12T12:23:23.324Z,18.17
2022-12-12T12:25:38.721Z,17.60
2022-12-12T12:30:23.318Z,13.52
2022-12-12T12:32:37.130Z,15.43
2022-12-12T12:34:54.783Z,16.00
2022-12-12T12:37:13.794Z,15.88
2022-12-12T12:39:43.544Z,16.67
2022-12-12T12:42:01.323Z,19.38
2022-12-12T12:44:25.933Z,21.67
2022-12-12T12:46:44.684Z,19.58
2022-12-12T12:48:53.362Z,20.63
2022-12-12T12:51:06.112Z,18.65
2022-12-12T12:53:24.408Z,17.42
2022-12-12T12:55:35.547Z,18.05
2022-12-12T12:57:45.661Z,18.08
2022-12-12T12:59:56.361Z,15.85
2022-12-12T13:02:07.347Z,14.68
2022-12-12T13:04:19.746Z,16.15
2022-12-12T13:06:37.192Z,12.27
2022-12-12T13:08:53.759Z,11.35
2022-12-12T13:11:02.842Z,11.57
2022-12-12T13:13:15.455Z,15.48
2022-12-12T13:15:25.590Z,16.05
2022-12-12T13:17:46.429Z,15.40
2022-12-12T13:19:54.007Z,17.05
2022-12-12T13:22:07.278Z,14.15
2022-12-12T13:24:18.588Z,14.38
2022-12-12T13:26:30.542Z,15.75
2022-12-12T13:28:39.508Z,15.23
2022-12-12T13:31:12.897Z,16.63
2022-12-12T13:33:39.542Z,16.38
2022-12-12T13:35:48.704Z,15.68
2022-12-12T13:37:56.028Z,16.48
2022-12-12T13:40:04.776Z,15.65
2022-12-12T13:42:12.335Z,16.90
2022-12-12T13:44:37.165Z,15.65
2022-12-12T13:46:45.609Z,15.40
2022-12-12T13:48:54.300Z,14.32
2022-12-12T13:51:31.074Z,15.40
2022-12-12T13:53:35.932Z,16.02
2022-12-12T13:55:41.205Z,14.60
2022-12-12T13:58:10.409Z,14.48
2022-12-12T14:00:22.604Z,15.10
2022-12-12T14:02:34.293Z,13.55
2022-12-12T14:04:41.154Z,13.43
2022-12-12T14:06:45.949Z,12.70
2022-12-12T14:08:54.031Z,13.43
2022-12-12T14:11:03.677Z,11.93
2022-12-12T14:13:29.182Z,11.20
2022-12-12T14:15:35.217Z,14.02
2022-12-12T14:17:43.375Z,14.02
2022-12-12T14:19:53.059Z,13.40
2022-12-12T14:21:58.218Z,14.25
2022-12-12T14:26:52.514Z,15.43
2022-12-12T14:29:28.373Z,13.73
2022-12-12T14:31:38.528Z,13.97
2022-12-12T14:34:07.875Z,12.23
2022-12-12T14:36:31.912Z,14.70
2022-12-12T14:38:48.202Z,16.55
2022-12-12T14:40:58.880Z,16.33
2022-12-12T14:43:19.563Z,15.57
2022-12-12T14:45:36.532Z,18.13
2022-12-12T14:47:44.374Z,18.58
2022-12-12T14:50:09.982Z,18.05
2022-12-12T14:52:19.501Z,18.42
2022-12-12T14:54:27.314Z,16.40
2022-12-12T14:56:36.258Z,17.42
2022-12-12T14:58:44.053Z,17.48
2022-12-12T15:00:53.136Z,17.52
2022-12-12T15:02:58.198Z,18.48
2022-12-12T15:05:09.002Z,17.05
2022-12-12T15:07:26.658Z,18.75
2022-12-12T15:09:33.897Z,19.55
2022-12-12T15:11:41.993Z,18.95
2022-12-12T15:13:53.977Z,18.17
2022-12-12T15:15:58.869Z,17.65
2022-12-12T15:18:04.363Z,19.05
2022-12-12T15:20:19.787Z,18.77
2022-12-12T15:22:27.179Z,13.77
2022-12-12T15:24:39.535Z,18.00
2022-12-12T15:26:47.792Z,17.67
2022-12-12T15:28:54.855Z,18.55
2022-12-12T15:31:01.196Z,17.73
2022-12-12T15:33:09.053Z,19.27
2022-12-12T15:35:21.764Z,17.88
2022-12-12T15:37:32.696Z,19.25
2022-12-12T15:39:37.935Z,21.40
2022-12-12T15:41:43.025Z,24.02
2022-12-12T15:43:47.924Z,25.60
2022-12-12T15:45:55.844Z,22.50
2022-12-12T15:48:01.349Z,22.55
2022-12-12T15:50:10.908Z,20.75
2022-12-12T15:52:28.164Z,19.75
2022-12-12T15:54:33.060Z,18.20
2022-12-12T15:56:37.897Z,19.90
2022-12-12T15:58:45.112Z,16.80
2022-12-12T16:00:52.801Z,18.83
2022-12-12T16:03:03.155Z,17.85
2022-12-12T16:05:11.097Z,18.20
2022-12-12T16:07:26.590Z,18.00
2022-12-12T16:09:32.054Z,19.17
2022-12-12T16:11:43.023Z,19.52
2022-12-12T16:13:47.983Z,20.85
2022-12-12T16:15:52.892Z,19.58
2022-12-12T16:18:02.888Z,17.90
2022-12-12T16:20:14.211Z,19.17
2022-12-12T16:22:39.935Z,25.25
2022-12-12T16:24:52.421Z,17.92
2022-12-12T16:27:00.619Z,15.88
2022-12-12T16:29:06.255Z,16.50
2022-12-12T16:31:17.940Z,15.40
2022-12-12T16:33:32.053Z,16.08
2022-12-12T16:35:36.888Z,15.73
2022-12-12T16:37:41.703Z,15.68
2022-12-12T16:39:47.126Z,18.15
2022-12-12T16:41:54.923Z,17.35
2022-12-12T16:44:00.395Z,17.65
2022-12-12T16:46:06.157Z,17.40
2022-12-12T16:48:17.506Z,16.08
2022-12-12T16:50:22.333Z,17.40
2022-12-12T16:52:27.179Z,16.67
2022-12-12T16:54:32.083Z,17.70
2022-12-12T16:56:36.878Z,19.73
2022-12-12T16:58:44.312Z,19.75
2022-12-12T17:00:49.318Z,19.67
2022-12-12T17:02:54.223Z,20.92
2022-12-12T17:04:59.011Z,18.25
2022-12-12T17:07:08.020Z,16.40
2022-12-12T17:09:12.798Z,16.70
2022-12-12T17:11:17.592Z,18.35
2022-12-12T17:13:24.874Z,18.33
2022-12-12T17:15:34.078Z,16.42
2022-12-12T17:17:38.871Z,14.48
2022-12-12T17:19:43.696Z,15.05
2022-12-12T17:21:48.741Z,15.50
2022-12-12T17:26:03.567Z,15.60
2022-12-12T17:28:09.276Z,16.88
2022-12-12T17:30:15.808Z,17.38
2022-12-12T17:32:24.673Z,18.60
2022-12-12T17:34:29.490Z,19.00
2022-12-12T17:36:34.336Z,16.98
2022-12-12T17:38:39.190Z,18.42
2022-12-12T17:40:45.941Z,20.42
2022-12-12T17:42:50.773Z,20.73
2022-12-12T17:44:55.599Z,17.85
2022-12-12T17:47:00.400Z,17.63
2022-12-12T17:49:07.950Z,15.57
2022-12-12T17:51:14.581Z,16.05
2022-12-12T17:53:19.386Z,15.45
2022-12-12T17:55:53.231Z,15.98
2022-12-12T17:57:50.105Z,16.55
2022-12-12T17:59:54.887Z,17.95
2022-12-12T18:01:59.808Z,16.92
2022-12-12T18:04:09.111Z,17.63
2022-12-12T18:06:14.470Z,18.30
2022-12-12T18:10:23.878Z,17.00
2022-12-12T18:12:28.704Z,17.00
2022-12-12T18:14:33.850Z,17.73
2022-12-12T18:16:39.508Z,15.73
2022-12-12T18:18:44.524Z,17.13
2022-12-12T18:20:52.354Z,17.42
2022-12-12T18:22:57.641Z,16.75
2022-12-12T18:25:02.424Z,17.77
2022-12-12T18:27:07.543Z,19.98
2022-12-12T18:29:15.881Z,22.38
2022-12-12T18:31:20.756Z,22.15
2022-12-12T18:33:25.592Z,24.75
2022-12-12T18:35:30.425Z,31.15
2022-12-12T18:37:37.787Z,31.05
2022-12-12T18:39:42.618Z,30.38
2022-12-12T18:41:47.366Z,28.67
2022-12-12T18:43:52.482Z,29.02
2022-12-12T18:48:02.298Z,33.17
2022-12-12T18:50:08.269Z,32.45
2022-12-12T18:52:13.129Z,34.63
2022-12-12T18:54:20.744Z,32.10
2022-12-12T18:56:27.404Z,29.83
2022-12-12T18:58:32.212Z,30.08
2022-12-12T19:00:39.993Z,29.70
2022-12-12T19:02:44.868Z,29.50
2022-12-12T19:06:55.491Z,20.42
2022-12-12T19:09:00.818Z,25.73
2022-12-12T19:11:09.175Z,25.65
2022-12-12T19:13:13.997Z,25.00
2022-12-12T19:15:18.832Z,25.75
2022-12-12T19:17:26.192Z,25.30
2022-12-12T19:19:31.456Z,26.48
2022-12-12T19:21:36.563Z,25.42
2022-12-12T19:25:46.425Z,23.60
2022-12-12T19:27:53.956Z,26.83
2022-12-12T19:29:58.780Z,25.95
2022-12-12T19:32:03.597Z,25.60
2022-12-12T19:34:09.856Z,27.33
2022-12-12T19:36:17.810Z,27.08
2022-12-12T19:38:24.469Z,25.58
2022-12-12T19:40:29.889Z,24.85
2022-12-12T19:42:34.734Z,27.20
2022-12-12T19:44:43.725Z,28.75
2022-12-12T19:46:48.944Z,25.73
2022-12-12T19:48:57.219Z,26.20
2022-12-12T19:51:07.408Z,25.58
2022-12-12T19:53:12.234Z,25.33
2022-12-12T19:55:17.093Z,27.00
2022-12-12T19:59:31.060Z,25.23
2022-12-12T20:01:39.685Z,27.52
2022-12-12T20:03:44.982Z,26.10
2022-12-12T20:05:53.532Z,26.73
2022-12-12T20:07:59.624Z,28.48
2022-12-12T20:10:04.592Z,30.92
2022-12-12T20:12:09.438Z,28.35
2022-12-12T20:14:15.799Z,30.15
2022-12-12T20:16:23.418Z,28.90
2022-12-12T20:18:32.755Z,28.40
2022-12-12T20:20:37.695Z,28.95
2022-12-12T20:22:42.470Z,30.40
2022-12-12T20:24:47.485Z,29.40
2022-12-12T20:26:52.959Z,28.98
2022-12-12T20:28:59.980Z,30.42
2022-12-12T20:31:09.896Z,30.33
2022-12-12T20:33:14.805Z,30.77
2022-12-12T20:35:22.167Z,29.25
2022-12-12T20:37:27.014Z,30.15
2022-12-12T20:39:31.957Z,28.17
2022-12-12T20:41:40.917Z,27.60
2022-12-12T20:43:46.776Z,26.63
2022-12-12T20:45:51.622Z,26.33
2022-12-12T20:47:56.486Z,27.83
2022-12-12T20:50:02.836Z,27.92
2022-12-12T20:52:10.289Z,58.67
2022-12-12T20:54:17.097Z,103.20
2022-12-12T20:56:22.895Z,59.53
2022-12-12T20:58:27.688Z,37.97
2022-12-12T21:00:35.827Z,30.35
2022-12-12T21:02:42.723Z,28.50
2022-12-12T21:04:47.918Z,29.48
2022-12-12T21:06:52.771Z,28.27
2022-12-12T21:09:03.266Z,29.38
2022-12-12T21:11:08.805Z,27.23
2022-12-12T21:13:14.504Z,29.52
2022-12-12T21:15:19.837Z,28.52
2022-12-12T21:17:25.046Z,29.85
2022-12-12T21:19:30.115Z,29.40
2022-12-12T21:23:40.518Z,27.75
2022-12-12T21:25:47.995Z,27.48
2022-12-12T21:27:53.197Z,29.25
2022-12-12T21:29:58.088Z,29.75
2022-12-12T21:32:03.057Z,31.13
2022-12-12T21:36:15.874Z,28.13
2022-12-12T21:38:20.632Z,27.35
2022-12-12T21:40:25.508Z,27.00
2022-12-12T21:42:32.885Z,28.40
2022-12-12T21:44:44.023Z,27.48
2022-12-12T21:46:50.625Z,24.40
2022-12-12T21:51:17.005Z,25.98
2022-12-12T21:53:37.916Z,27.05
2022-12-12T21:55:43.593Z,26.33
2022-12-12T21:57:51.026Z,26.73
2022-12-12T21:59:55.969Z,25.83
2022-12-12T22:02:02.318Z,25.10
2022-12-12T22:04:07.588Z,23.48
2022-12-12T22:06:13.877Z,25.60
2022-12-12T22:08:18.672Z,25.30
2022-12-12T22:10:23.560Z,26.88
2022-12-12T22:12:30.034Z,27.02
2022-12-12T22:14:38.614Z,30.83
2022-12-12T22:16:43.366Z,33.05
2022-12-12T22:18:48.742Z,31.48
2022-12-12T22:20:53.548Z,33.53
2022-12-12T22:22:58.490Z,35.17
2022-12-12T22:25:03.250Z,35.00
2022-12-12T22:27:08.096Z,35.50
2022-12-12T22:29:14.973Z,32.63
2022-12-12T22:31:23.579Z,31.30
2022-12-12T22:33:28.378Z,30.02
2022-12-12T22:35:33.164Z,31.38
2022-12-12T22:37:37.974Z,31.45
2022-12-12T22:39:42.823Z,29.45
2022-12-12T22:41:48.158Z,26.52
2022-12-12T22:43:56.509Z,24.90
2022-12-12T22:46:06.528Z,25.60
2022-12-12T22:48:14.006Z,26.25
2022-12-12T22:50:18.872Z,26.80
2022-12-12T22:52:25.484Z,26.90
2022-12-12T22:54:30.407Z,28.35
2022-12-12T22:58:41.244Z,27.63
2022-12-12T23:00:46.105Z,25.17
2022-12-12T23:02:51.002Z,28.17
2022-12-12T23:04:58.611Z,29.95
2022-12-12T23:07:03.579Z,27.92
2022-12-12T23:09:10.330Z,30.58
2022-12-12T23:11:16.983Z,27.38
2022-12-12T23:13:22.001Z,26.73
2022-12-12T23:17:31.393Z,26.92
2022-12-12T23:19:36.213Z,24.70
2022-12-12T23:21:44.281Z,23.88
2022-12-12T23:23:49.275Z,24.83
2022-12-12T23:25:54.076Z,23.50
2022-12-12T23:27:58.877Z,24.27
2022-12-12T23:30:03.714Z,25.23
2022-12-12T23:32:08.587Z,23.67
2022-12-12T23:34:20.690Z,25.50
2022-12-12T23:36:26.386Z,24.48
2022-12-12T23:38:33.845Z,23.83
2022-12-12T23:40:38.701Z,28.33
2022-12-12T23:42:43.518Z,36.65
2022-12-12T23:44:50.839Z,56.25
2022-12-12T23:46:58.211Z,24.17
2022-12-12T23:49:04.972Z,21.40
2022-12-12T23:51:09.718Z,22.55
2022-12-12T23:53:14.525Z,48.05
2022-12-12T23:55:22.451Z,45.92
2022-12-12T23:57:27.228Z,31.10
2022-12-12T23:59:32.188Z,24.40
